www.wetter-lohne.de
Wetterdaten: aktuell Sonntag, 10.05.2026 20:45
Datum Zeit Temp. I. Temp. A. Boden 5cm Temp. A. min Temp. A. max Feuchte I. Feuchte A. Luftdruck Regen Wind Richtung Richtung Sonnenschein ET Solar Taupunkt Windchill Windböen Empfang
10.05.2026 20:45 21,6 °C 11,7 °C 11,7 °C 11,7 °C 11,9 °C 53 % 72 % 1009,1 hPa 0,0 mm 0,5 km/h (0 Bft) N-NO 26 ° 5 min 0,051 mm 23 W/m² 6,8 °C 11,7 °C 8,0 km/h (2 Bft) 97,30 %
10.05.2026 19:45 21,9 °C 13,5 °C 13,9 °C 13,5 °C 13,6 °C 54 % 70 % 1009,1 hPa 0,0 mm 0,0 km/h (0 Bft) W-NW 297 ° 5 min 0,127 mm 69 W/m² 8,1 °C 13,5 °C 0,0 km/h (0 Bft) 99,17 %
10.05.2026 18:45 22,1 °C 15,4 °C 17,2 °C 15,3 °C 15,4 °C 54 % 68 % 1009,3 hPa 0,0 mm 0,0 km/h (0 Bft) N 10 ° 55 min 0,203 mm 283 W/m² 9,5 °C 15,4 °C 0,0 km/h (0 Bft) 95,12 %
10.05.2026 17:45 22,1 °C 16,6 °C 19,4 °C 16,4 °C 16,6 °C 54 % 66 % 1009,7 hPa 0,0 mm 0,0 km/h (0 Bft) NW 322 ° 45 min 0,229 mm 458 W/m² 10,2 °C 16,6 °C 1,6 km/h (1 Bft) 98,33 %
10.05.2026 16:45 22,1 °C 17,3 °C 21,1 °C 17,3 °C 17,4 °C 54 % 65 % 1009,8 hPa 0,0 mm 0,0 km/h (0 Bft) N 4 ° 40 min 0,330 mm 264 W/m² 10,7 °C 17,3 °C 0,0 km/h (0 Bft) 98,33 %
10.05.2026 15:45 22,0 °C 18,1 °C 23,9 °C 18,1 °C 18,4 °C 55 % 67 % 1010,2 hPa 0,0 mm 0,0 km/h (0 Bft) NO 38 ° 50 min 0,280 mm 558 W/m² 11,9 °C 18,1 °C 4,8 km/h (1 Bft) 99,17 %
10.05.2026 14:45 21,8 °C 18,3 °C 22,2 °C 18,2 °C 18,3 °C 55 % 63 % 1010,8 hPa 0,0 mm 1,1 km/h (1 Bft) W 259 ° 25 min 0,228 mm 338 W/m² 11,1 °C 18,3 °C 4,8 km/h (1 Bft) 94,44 %
10.05.2026 13:45 21,6 °C 17,9 °C 21,7 °C 17,9 °C 17,9 °C 55 % 65 % 1011,3 hPa 0,0 mm 0,0 km/h (0 Bft) N 0 ° 15 min 0,330 mm 294 W/m² 11,2 °C 17,9 °C 0,0 km/h (0 Bft) 91,30 %
10.05.2026 13:25 21,5 °C 17,7 °C 22,2 °C 17,7 °C 17,8 °C 55 % 67 % 1011,5 hPa 0,0 mm 0,0 km/h (0 Bft) N-NO 32 ° 35 min 0,330 mm 265 W/m² 11,5 °C 17,7 °C 0,0 km/h (0 Bft) 95,83 %
10.05.2026 12:25 21,2 °C 17,8 °C 23,9 °C 17,8 °C 17,9 °C 55 % 66 % 1011,8 hPa 0,0 mm 0,0 km/h (0 Bft) W-NW 287 ° 55 min 0,280 mm 635 W/m² 11,4 °C 17,8 °C 0,0 km/h (0 Bft) 99,15 %
10.05.2026 11:25 21,1 °C 16,5 °C 21,7 °C 16,4 °C 16,5 °C 55 % 71 % 1012,3 hPa 0,0 mm 0,0 km/h (0 Bft) N 350 ° 55 min 0,228 mm 623 W/m² 11,2 °C 16,5 °C 0,0 km/h (0 Bft) 96,30 %
10.05.2026 10:25 20,9 °C 15,4 °C 18,9 °C 15,3 °C 15,4 °C 55 % 74 % 1012,4 hPa 0,0 mm 0,0 km/h (0 Bft) NW 315 ° 60 min 0,178 mm 370 W/m² 10,8 °C 15,4 °C 0,0 km/h (0 Bft) 95,61 %
10.05.2026 09:25 20,6 °C 14,0 °C 15,6 °C 13,9 °C 14,0 °C 55 % 77 % 1012,7 hPa 0,0 mm 0,0 km/h (0 Bft) N 9 ° 40 min 0,102 mm 327 W/m² 10,0 °C 14,0 °C 0,0 km/h (0 Bft) 100,00 %
10.05.2026 08:25 20,4 °C 12,0 °C 11,7 °C 11,8 °C 12,1 °C 55 % 82 % 1012,8 hPa 0,0 mm 0,0 km/h (0 Bft) O-NO 66 ° 5 min 0,051 mm 197 W/m² 9,0 °C 12,0 °C 0,0 km/h (0 Bft) 97,39 %
10.05.2026 07:25 20,2 °C 9,9 °C 8,3 °C 9,8 °C 9,9 °C 56 % 89 % 1013,1 hPa 0,0 mm 0,0 km/h (0 Bft) O-NO 66 ° 0 min 0,025 mm 124 W/m² 8,2 °C 9,9 °C 0,0 km/h (0 Bft) 99,08 %
10.05.2026 06:25 19,8 °C 7,6 °C 5,0 °C 7,6 °C 7,7 °C 56 % 89 % 1013,0 hPa 0,0 mm 0,0 km/h (0 Bft) O-NO 66 ° 0 min 0,000 mm 24 W/m² 5,9 °C 7,6 °C 0,0 km/h (0 Bft) 99,17 %
10.05.2026 05:25 19,9 °C 8,3 °C 5,6 °C 8,3 °C 8,4 °C 56 % 87 % 1013,4 hPa 0,0 mm 0,0 km/h (0 Bft) O-NO 66 ° 0 min 0,000 mm 0 W/m² 6,3 °C 8,3 °C 0,0 km/h (0 Bft) 99,17 %
10.05.2026 04:25 20,0 °C 10,1 °C 7,8 °C 10,1 °C 10,1 °C 56 % 86 % 1013,5 hPa 0,0 mm 0,0 km/h (0 Bft) O-NO 66 ° 0 min 0,000 mm 0 W/m² 7,9 °C 10,1 °C 0,0 km/h (0 Bft) 97,62 %
10.05.2026 03:25 20,1 °C 10,8 °C 8,9 °C 10,8 °C 10,9 °C 56 % 83 % 1013,7 hPa 0,0 mm 0,0 km/h (0 Bft) O-NO 66 ° 0 min 0,000 mm 0 W/m² 8,0 °C 10,8 °C 0,0 km/h (0 Bft) 97,50 %
10.05.2026 02:25 20,2 °C 12,1 °C 10,0 °C 12,0 °C 12,1 °C 56 % 79 % 1014,4 hPa 0,0 mm 0,0 km/h (0 Bft) O-NO 65 ° 0 min 0,000 mm 0 W/m² 8,6 °C 12,1 °C 0,0 km/h (0 Bft) 100,00 %
10.05.2026 01:25 20,3 °C 12,8 °C 11,7 °C 12,8 °C 12,8 °C 56 % 77 % 1014,8 hPa 0,0 mm 0,0 km/h (0 Bft) NO 48 ° 0 min 0,000 mm 0 W/m² 8,9 °C 12,8 °C 0,0 km/h (0 Bft) 98,33 %
10.05.2026 00:25 20,4 °C 13,4 °C 11,7 °C 13,4 °C 13,5 °C 55 % 75 % 1015,1 hPa 0,0 mm 0,0 km/h (0 Bft) NO 46 ° 0 min 0,000 mm 0 W/m² 9,1 °C 13,4 °C 0,0 km/h (0 Bft) 96,40 %
10.05.2026 00:00 20,5 °C 13,7 °C 11,7 °C 13,7 °C 13,8 °C 55 % 73 % 1015,3 hPa 0,0 mm 0,0 km/h (0 Bft) O-NO 76 ° 0 min 0,000 mm 0 W/m² 8,9 °C 13,7 °C 0,0 km/h (0 Bft) 99,07 %
_ Min-Zeit 05:45 06:25 05:45 06:25 06:10 20:30 14:25 19:50 - 00:00 - - - - - 06:05 06:25 00:00 06:50
Minimum _ 19,8 °C 7,6 °C 5,0 °C 7,6 °C 7,7 °C 53 % 59 % 1009,0 hPa - 0,0 km/h (0 Bft) - - - - - 5,8 °C 7,6 °C 0,0 km/h (0 Bft) 77,08 %
_ Max-Zeit 15:55 14:10 14:15 14:10 14:10 00:50 06:50 00:00 00:00 16:55 - - 07:55 13:05 14:05 14:00 14:10 16:55 01:20
Maximum _ 22,1 °C 19,6 °C 25,6 °C 19,4 °C 19,6 °C 56 % 91 % 1015,3 hPa 0,0 mm 1,8 km/h
N-NW (1 Bft)
- - 5 min 0,330 mm 890 W/m² 12,3 °C 19,6 °C 14,5 km/h
N (3 Bft)
100,00 %
Durchschnitt _ 21,0 °C 14,0 °C 15,2 °C 13,9 °C 14,0 °C 55 % 75 % 1012,1 hPa #0,0 mm 0,1 km/h (0 Bft) O-NO - #7:55 h #2,642 mm 322 W/m² 9,4 °C 14,0 °C 1,2 km/h (1 Bft) 97,14 %
©2010 Thomas Mönnich